Bay Point, New York
Current Conditions -  °F | °C
As of 11:53 AM on Friday 28 Nov 2014 (Local Time) from KFOK Reporting Station
Clear Clear  
Wind Chill: 27°   Ceiling: Unl
Heat Index: 38°   Visibility: 10mi
Dew Point: 20°   Wind: 22mph
Humidity: 48%   Direction: 340°NNW
Pressure: 30.11"   Gusts: 28mph
Location:  40.9692°N, 72.306°W
Report Text: KFOK 281653Z 34019G24KT 10SM CLR 03/M07 A3011 RMK AO2 PK WND 32027/1642 SLP197 T00331067
Loading
Personal Weather Stations






























Interactive Weather Map New forecast layout! Learn more

10-Day Weather Forecast

Advertisements
Track Severe Weather on mobile